Birsa Munda Airport
VERC : now visible

Airfield :











YOU CAN JOIN US ON...

 
LOGIN :

Register | Disclaimer

   EN    FR    IT 

 









Legend :    VFR   Marginal VFR   IFR   Intensive IFR   Very Intensive IFR
Visi :
Ceiling :
>= 8 km
>= 3000ft
5 to 8 km
1000 to 3000 ft
1500m to 5 km
500 to 1000 ft
800 to 1500m
200 to 500 ft
< 800m
< 200 ft
Symbols :   Thunderstorms  Fog  Heavy snow  Heavy precipitations  Wind > 20 kt






- Airport Elevation : 2148 ft
- IATA code : IXR


VERC - Birsa Munda

CURRENT METAR :
  • 171230Z 00000KT 6000 NSC 24/08 Q1017 BECMG 5000 HZ

EXPIRED METARs :
  • 171200Z 27003KT 6000 NSC 24/08 Q1017 NOSIG
  • 171130Z 28003KT 6000 NSC 25/07 Q1017 NOSIG
  • 171100Z 36004KT 6000 NSC 26/07 Q1017 NOSIG
  • 171030Z 29004KT 6000 NSC 26/09 Q1017 NOSIG
  • 171000Z 03004KT 6000 NSC 27/09 Q1017 NOSIG

TAF TAF VERC
Valid from the 17 at 12:00 until the 17 at 21:00 UTC


171100Z 1712/1721 33005KT 5500 HZ FEW100
BECMG 1714/1716 00000KT 4000 HZ
BECMG 1718/1720 2500 BR HZ



MET'MAP, your aeronautical weather chart ! - Copyright ORBIFLY December 2007 - Disclaimer

ORBIFLY MET'MAP TEAM :

Programming & Development : Alexandra Zaïnal
Concept & original design : Baudouin d'Aumeries
Assistance for programming : Marc-Olivier Méhu
Technical & hardware support : Manuel Goepfert

Contact : metmap@orbifly.com




SOURCES & CREDITS :

   NOAA       Earth
Advisory